S Coffeyville, Oklahoma
Current Conditions -  °F | °C
As of 4:28 AM on Saturday 25 Oct 2014 (Local Time) from KCFV Reporting Station
Haze Haze  
Wind Chill: 57°   Ceiling: Unl
Heat Index: 57°   Visibility: 3mi
Dew Point: 57°   Wind: 5mph
Humidity: 100%   Direction: 170°S
Pressure: 30.04"   Gusts: NA
Location:  36.9837°N, 95.6065°W
Report Text: KCFV 250928Z AUTO 17004KT 3SM BR CLR 14/14 A3004 RMK AO2 T01390139
Loading
Personal Weather Stations






























Interactive Weather Map
Tropical Storm Tracking
New forecast layout! Learn more

10-Day Weather Forecast

Advertisements
Track Severe Weather on mobile